Orlando, Florida
Traffic Map
Current Weather Conditions
Orlando, Florida
Clear
Clear
10°
Feels Like: 10°
Wind Chill: 10° Ceiling: Unl
Heat Index: 10° Visibility: 10mi
Dew Point: Wind: 6mph
Humidity: 93% Direction: 210° (SSW)
Pressure: 30.05in Gusts: 0mph
Raw Report DataKORL 141253Z 21005KT 10SM CLR 10/09 A3005 RMK AO2 SLP181 T01000089
Traffic Incident Summary
Active as of:
Severity:
Category:
InformationThere was an issue retrieving the traffic information for this location. Please try a different location or try again shortly.
Advertisements